createdAt,value
2017-02-09T00:00:14.074Z,21.86
2017-02-09T00:00:28.626Z,21.86
2017-02-09T00:00:43.195Z,21.83
2017-02-09T00:00:57.769Z,21.86
2017-02-09T00:01:12.385Z,21.92
2017-02-09T00:01:26.958Z,21.83
2017-02-09T00:01:41.566Z,21.89
2017-02-09T00:01:56.120Z,21.86
2017-02-09T00:02:10.659Z,21.9
2017-02-09T00:02:25.261Z,21.9
2017-02-09T00:02:39.858Z,21.9
2017-02-09T00:02:54.463Z,21.86
2017-02-09T00:03:09.055Z,21.82
2017-02-09T00:03:23.596Z,21.9
2017-02-09T00:03:38.174Z,21.89
2017-02-09T00:03:52.755Z,21.86
2017-02-09T00:04:07.359Z,21.89
2017-02-09T00:04:21.944Z,21.9
2017-02-09T00:04:36.550Z,21.89
2017-02-09T00:04:51.118Z,21.9
2017-02-09T00:05:05.676Z,21.96
2017-02-09T00:05:20.247Z,21.82
2017-02-09T00:05:34.804Z,21.9
2017-02-09T00:05:49.356Z,21.89
2017-02-09T00:06:03.876Z,21.86
2017-02-09T00:06:18.448Z,21.85
2017-02-09T00:06:33.071Z,21.89
2017-02-09T00:06:47.647Z,21.86
2017-02-09T00:07:02.213Z,21.86
2017-02-09T00:07:16.760Z,21.86
2017-02-09T00:07:31.351Z,21.83
2017-02-09T00:07:45.943Z,21.83
2017-02-09T00:08:00.569Z,21.82
2017-02-09T00:08:15.188Z,21.83
2017-02-09T00:08:29.720Z,21.78
2017-02-09T00:08:44.355Z,21.73
2017-02-09T00:08:58.879Z,21.73
2017-02-09T00:09:13.479Z,21.78
2017-02-09T00:09:28.093Z,21.8
2017-02-09T00:09:42.617Z,21.7
2017-02-09T00:09:57.181Z,21.74
2017-02-09T00:10:11.697Z,21.76
2017-02-09T00:10:26.239Z,21.77
2017-02-09T00:10:40.765Z,21.78
2017-02-09T00:10:55.336Z,21.74
2017-02-09T00:11:09.934Z,21.76
2017-02-09T00:11:24.571Z,21.7
2017-02-09T00:11:39.190Z,21.7
2017-02-09T00:11:54.093Z,21.71
2017-02-09T00:12:08.670Z,21.83
2017-02-09T00:12:23.236Z,21.77
2017-02-09T00:12:37.806Z,21.77
2017-02-09T00:12:52.333Z,21.85
2017-02-09T00:13:06.950Z,21.85
2017-02-09T00:13:21.543Z,21.83
2017-02-09T00:13:36.140Z,21.89
2017-02-09T00:13:50.824Z,21.89
2017-02-09T00:14:05.469Z,21.8
2017-02-09T00:14:20.061Z,21.85
2017-02-09T00:14:34.581Z,21.86
2017-02-09T00:14:49.127Z,21.83
2017-02-09T00:15:03.696Z,21.86
2017-02-09T00:15:18.295Z,21.85
2017-02-09T00:15:32.894Z,21.82
2017-02-09T00:15:47.442Z,21.78
2017-02-09T00:16:02.035Z,21.86
2017-02-09T00:16:16.569Z,21.78
2017-02-09T00:16:31.182Z,21.83
2017-02-09T00:16:45.724Z,21.74
2017-02-09T00:17:00.258Z,21.71
2017-02-09T00:17:14.780Z,21.77
2017-02-09T00:17:29.393Z,21.7
2017-02-09T00:17:43.998Z,21.77
2017-02-09T00:17:58.542Z,21.73
2017-02-09T00:18:13.125Z,21.82
2017-02-09T00:18:27.669Z,21.74
2017-02-09T00:18:42.220Z,21.71
2017-02-09T00:18:56.749Z,21.74
2017-02-09T00:19:11.310Z,21.74
2017-02-09T00:19:25.881Z,21.74
2017-02-09T00:19:40.401Z,21.73
2017-02-09T00:19:54.969Z,21.73
2017-02-09T00:20:09.545Z,21.73
2017-02-09T00:20:24.065Z,21.73
2017-02-09T00:20:38.586Z,21.68
2017-02-09T00:20:53.147Z,21.77
2017-02-09T00:21:07.701Z,21.74
2017-02-09T00:21:22.244Z,21.76
2017-02-09T00:21:36.830Z,21.8
2017-02-09T00:21:51.412Z,21.74
2017-02-09T00:22:05.963Z,21.74
2017-02-09T00:22:20.531Z,21.73
2017-02-09T00:22:35.028Z,21.71
2017-02-09T00:22:49.546Z,21.73
2017-02-09T00:23:04.096Z,21.73
2017-02-09T00:23:18.665Z,21.7
2017-02-09T00:23:33.215Z,21.77
2017-02-09T00:23:47.725Z,21.68
2017-02-09T00:24:02.324Z,21.74
2017-02-09T00:24:16.945Z,21.74
2017-02-09T00:24:31.521Z,21.78
2017-02-09T00:24:46.058Z,21.74
2017-02-09T00:25:00.631Z,21.78
2017-02-09T00:25:15.240Z,21.7
2017-02-09T00:25:29.864Z,21.78
2017-02-09T00:25:44.459Z,21.73
2017-02-09T00:25:59.026Z,21.73
2017-02-09T00:26:13.570Z,21.77
2017-02-09T00:26:28.190Z,21.7
2017-02-09T00:26:42.730Z,21.76
2017-02-09T00:26:57.477Z,21.73
2017-02-09T00:27:12.076Z,21.71
2017-02-09T00:27:26.657Z,21.68
2017-02-09T00:27:41.214Z,21.77
2017-02-09T00:27:55.821Z,21.77
2017-02-09T00:28:10.378Z,21.73
2017-02-09T00:28:24.971Z,21.67
2017-02-09T00:28:39.779Z,21.73
2017-02-09T00:28:54.291Z,21.78
2017-02-09T00:29:08.840Z,21.76
2017-02-09T00:29:23.443Z,21.7
2017-02-09T00:29:37.981Z,21.8
2017-02-09T00:29:52.537Z,21.73
2017-02-09T00:30:07.119Z,21.73
2017-02-09T00:30:21.685Z,21.76
2017-02-09T00:30:36.239Z,21.76
2017-02-09T00:30:50.827Z,21.77
2017-02-09T00:31:05.351Z,21.76
2017-02-09T00:31:19.862Z,21.71
2017-02-09T00:31:34.444Z,21.73
2017-02-09T00:31:49.017Z,21.85
2017-02-09T00:32:03.499Z,21.82
2017-02-09T00:32:18.031Z,21.89
2017-02-09T00:32:32.580Z,21.9
2017-02-09T00:32:47.175Z,21.94
2017-02-09T00:33:01.743Z,21.92
2017-02-09T00:33:16.319Z,21.9
2017-02-09T00:33:30.825Z,21.89
2017-02-09T00:33:45.418Z,21.86
2017-02-09T00:33:59.968Z,21.89
2017-02-09T00:34:14.555Z,21.92
2017-02-09T00:34:29.069Z,21.9
2017-02-09T00:34:43.631Z,21.86
2017-02-09T00:34:58.188Z,21.9
2017-02-09T00:35:12.806Z,21.89
2017-02-09T00:35:27.378Z,21.86
2017-02-09T00:35:41.891Z,21.89
2017-02-09T00:35:56.365Z,21.9
2017-02-09T00:36:10.924Z,21.89
2017-02-09T00:36:25.496Z,21.85
2017-02-09T00:36:40.013Z,21.8
2017-02-09T00:36:54.538Z,21.86
2017-02-09T00:37:09.114Z,21.85
2017-02-09T00:37:23.681Z,21.74
2017-02-09T00:37:38.241Z,21.82
2017-02-09T00:37:52.843Z,21.8
2017-02-09T00:38:07.309Z,21.8
2017-02-09T00:38:21.859Z,21.85
2017-02-09T00:38:36.475Z,21.71
2017-02-09T00:38:50.979Z,21.77
2017-02-09T00:39:05.467Z,21.77
2017-02-09T00:39:20.058Z,21.8
2017-02-09T00:39:34.611Z,21.76
2017-02-09T00:39:49.149Z,21.76
2017-02-09T00:40:04.155Z,21.85
2017-02-09T00:40:18.743Z,21.78
2017-02-09T00:40:33.258Z,21.9
2017-02-09T00:40:47.778Z,21.77
2017-02-09T00:41:02.358Z,21.89
2017-02-09T00:41:16.914Z,21.8
2017-02-09T00:41:31.502Z,21.71
2017-02-09T00:41:46.058Z,21.85
2017-02-09T00:42:00.637Z,21.76
2017-02-09T00:42:15.392Z,21.74
2017-02-09T00:42:29.920Z,21.9
2017-02-09T00:42:44.439Z,21.9
2017-02-09T00:42:58.963Z,21.78
2017-02-09T00:43:13.563Z,21.8
2017-02-09T00:43:28.174Z,21.83
2017-02-09T00:43:42.662Z,21.8
2017-02-09T00:43:57.170Z,21.82
2017-02-09T00:44:11.659Z,21.83
2017-02-09T00:44:26.221Z,21.86
2017-02-09T00:44:40.772Z,21.9
2017-02-09T00:44:55.331Z,21.83
2017-02-09T00:45:09.892Z,21.82
2017-02-09T00:45:24.442Z,21.86
2017-02-09T00:45:39.024Z,21.8
2017-02-09T00:45:53.601Z,21.86
2017-02-09T00:46:08.183Z,21.86
2017-02-09T00:46:22.754Z,21.86
2017-02-09T00:46:37.324Z,21.83
2017-02-09T00:46:51.870Z,21.83
2017-02-09T00:47:06.404Z,21.86
2017-02-09T00:47:21.081Z,21.89
2017-02-09T00:47:35.651Z,21.9
2017-02-09T00:47:50.218Z,21.85
2017-02-09T00:48:04.785Z,21.85
2017-02-09T00:48:19.301Z,21.85
2017-02-09T00:48:33.873Z,21.82
2017-02-09T00:48:48.397Z,21.9
2017-02-09T00:49:03.004Z,21.8
2017-02-09T00:49:17.610Z,21.8
2017-02-09T00:49:32.188Z,21.68
2017-02-09T00:49:46.757Z,21.82
2017-02-09T00:50:01.358Z,21.77
2017-02-09T00:50:15.881Z,21.7
2017-02-09T00:50:30.433Z,21.71
2017-02-09T00:50:45.018Z,21.77
2017-02-09T00:50:59.594Z,21.85
2017-02-09T00:51:14.140Z,21.7
2017-02-09T00:51:28.711Z,21.74
2017-02-09T00:51:43.257Z,21.74
2017-02-09T00:51:57.798Z,21.73
2017-02-09T00:52:12.354Z,21.7
2017-02-09T00:52:26.955Z,21.77
2017-02-09T00:52:41.568Z,21.71
2017-02-09T00:52:56.124Z,21.73
2017-02-09T00:53:10.654Z,21.77
2017-02-09T00:53:25.279Z,21.76
2017-02-09T00:53:39.931Z,21.77
2017-02-09T00:53:54.469Z,21.74
2017-02-09T00:54:09.022Z,21.62
2017-02-09T00:54:23.572Z,21.74
2017-02-09T00:54:38.142Z,21.7
2017-02-09T00:54:52.657Z,21.73
2017-02-09T00:55:07.181Z,21.68
2017-02-09T00:55:21.809Z,21.74
2017-02-09T00:55:36.382Z,21.77
2017-02-09T00:55:50.935Z,21.73
2017-02-09T00:56:05.479Z,21.64
2017-02-09T00:56:20.064Z,21.74
2017-02-09T00:56:34.586Z,21.76
2017-02-09T00:56:49.097Z,21.68
2017-02-09T00:57:03.612Z,21.74
2017-02-09T00:57:18.483Z,21.74
2017-02-09T00:57:33.067Z,21.7
2017-02-09T00:57:47.660Z,21.76
2017-02-09T00:58:02.271Z,21.7
2017-02-09T00:58:16.922Z,21.76
2017-02-09T00:58:31.471Z,21.73
2017-02-09T00:58:45.949Z,21.7
2017-02-09T00:59:00.513Z,21.8
2017-02-09T00:59:15.071Z,21.74
2017-02-09T00:59:29.618Z,21.77
2017-02-09T00:59:44.176Z,21.77
2017-02-09T00:59:58.709Z,21.68
2017-02-09T01:00:13.269Z,21.74
2017-02-09T01:00:28.460Z,21.8
2017-02-09T01:00:43.049Z,21.73
2017-02-09T01:00:57.581Z,21.78
2017-02-09T01:01:12.242Z,21.78
2017-02-09T01:01:26.785Z,21.8
2017-02-09T01:01:41.392Z,21.78
2017-02-09T01:01:55.953Z,21.77
2017-02-09T01:02:10.507Z,21.8
2017-02-09T01:02:25.102Z,21.71
2017-02-09T01:02:39.653Z,21.74
2017-02-09T01:02:54.217Z,21.77
2017-02-09T01:03:08.767Z,21.82
2017-02-09T01:03:23.323Z,21.73
2017-02-09T01:03:37.944Z,21.77
2017-02-09T01:03:52.541Z,21.76
2017-02-09T01:04:07.159Z,21.73
2017-02-09T01:04:21.716Z,21.74
2017-02-09T01:04:36.251Z,21.74
2017-02-09T01:04:50.840Z,21.85
2017-02-09T01:05:05.425Z,21.77
2017-02-09T01:05:19.968Z,21.71
2017-02-09T01:05:34.460Z,21.77
2017-02-09T01:05:48.987Z,21.77
2017-02-09T01:06:03.537Z,21.82
2017-02-09T01:06:18.105Z,21.85
2017-02-09T01:06:32.630Z,21.82
2017-02-09T01:06:47.089Z,21.83
2017-02-09T01:07:01.645Z,21.89
2017-02-09T01:07:16.207Z,21.86
2017-02-09T01:07:30.788Z,21.85
2017-02-09T01:07:45.348Z,21.74
2017-02-09T01:07:59.915Z,21.77
2017-02-09T01:08:14.458Z,21.77
2017-02-09T01:08:28.959Z,21.77
2017-02-09T01:08:43.504Z,21.7
2017-02-09T01:08:58.054Z,21.74
2017-02-09T01:09:12.570Z,21.71
2017-02-09T01:09:27.145Z,21.68
2017-02-09T01:09:41.706Z,21.7
2017-02-09T01:09:56.257Z,21.74
2017-02-09T01:10:10.757Z,21.77
2017-02-09T01:10:25.334Z,21.76
2017-02-09T01:10:39.942Z,21.77
2017-02-09T01:10:54.439Z,21.82
2017-02-09T01:11:08.924Z,21.77
2017-02-09T01:11:23.513Z,21.73
2017-02-09T01:11:38.090Z,21.7
2017-02-09T01:11:52.620Z,21.74
2017-02-09T01:12:07.147Z,21.77
2017-02-09T01:12:21.975Z,21.74
2017-02-09T01:12:36.580Z,21.74
2017-02-09T01:12:51.144Z,21.71
2017-02-09T01:13:05.718Z,21.74
2017-02-09T01:13:20.363Z,21.78
2017-02-09T01:13:34.945Z,21.89
2017-02-09T01:13:49.452Z,21.85
2017-02-09T01:14:04.034Z,21.8
2017-02-09T01:14:18.656Z,21.9
2017-02-09T01:14:33.296Z,21.86
2017-02-09T01:14:47.879Z,21.89
2017-02-09T01:15:02.435Z,21.83
2017-02-09T01:15:17.001Z,21.89
2017-02-09T01:15:31.587Z,21.82
2017-02-09T01:15:46.156Z,21.9
2017-02-09T01:16:00.742Z,21.86
2017-02-09T01:16:15.315Z,21.86
2017-02-09T01:16:29.852Z,21.86
2017-02-09T01:16:44.467Z,21.85
2017-02-09T01:16:58.993Z,21.96
2017-02-09T01:17:13.619Z,21.92
2017-02-09T01:17:28.170Z,21.85
2017-02-09T01:17:42.661Z,21.9
2017-02-09T01:17:57.181Z,21.9
2017-02-09T01:18:11.733Z,21.93
2017-02-09T01:18:26.251Z,21.93
2017-02-09T01:18:40.807Z,21.89
2017-02-09T01:18:55.378Z,21.92
2017-02-09T01:19:09.898Z,21.85
2017-02-09T01:19:24.453Z,21.85
2017-02-09T01:19:38.992Z,21.82
2017-02-09T01:19:53.607Z,21.9
2017-02-09T01:20:08.181Z,21.9
2017-02-09T01:20:22.761Z,21.85
2017-02-09T01:20:37.298Z,21.92
2017-02-09T01:20:51.884Z,21.86
2017-02-09T01:21:06.470Z,21.86
2017-02-09T01:21:20.965Z,21.89
2017-02-09T01:21:35.573Z,21.9
2017-02-09T01:21:50.172Z,21.9
2017-02-09T01:22:04.738Z,21.9
2017-02-09T01:22:19.210Z,21.92
2017-02-09T01:22:33.763Z,21.96
2017-02-09T01:22:48.264Z,21.9
2017-02-09T01:23:02.767Z,21.9
2017-02-09T01:23:17.311Z,21.93
2017-02-09T01:23:31.950Z,21.96
2017-02-09T01:23:46.534Z,21.94
2017-02-09T01:24:01.071Z,21.96
2017-02-09T01:24:15.630Z,21.93
2017-02-09T01:24:30.186Z,22.05
2017-02-09T01:24:44.771Z,21.94
2017-02-09T01:24:59.351Z,21.97
2017-02-09T01:25:13.930Z,21.92
2017-02-09T01:25:28.526Z,21.99
2017-02-09T01:25:43.046Z,21.96
2017-02-09T01:25:57.602Z,21.96
2017-02-09T01:26:12.226Z,21.96
2017-02-09T01:26:26.797Z,21.99
2017-02-09T01:26:41.370Z,21.92
2017-02-09T01:26:55.914Z,21.96
2017-02-09T01:27:10.479Z,21.94
2017-02-09T01:27:25.183Z,21.96
2017-02-09T01:27:39.725Z,21.92
2017-02-09T01:27:54.259Z,21.96
2017-02-09T01:28:08.753Z,22.02
2017-02-09T01:28:23.360Z,21.9
2017-02-09T01:28:37.897Z,22.02
2017-02-09T01:28:52.508Z,22.02
2017-02-09T01:29:07.103Z,21.86
2017-02-09T01:29:21.634Z,21.83
2017-02-09T01:29:36.160Z,21.92
2017-02-09T01:29:50.678Z,21.89
2017-02-09T01:30:05.189Z,21.9
2017-02-09T01:30:19.777Z,21.93
2017-02-09T01:30:34.377Z,21.93
2017-02-09T01:30:49.011Z,21.9
2017-02-09T01:31:03.547Z,21.9
2017-02-09T01:31:18.158Z,21.92
2017-02-09T01:31:32.708Z,21.9
2017-02-09T01:31:47.281Z,21.92
2017-02-09T01:32:01.869Z,21.89
2017-02-09T01:32:16.434Z,21.85
2017-02-09T01:32:31.038Z,21.86
2017-02-09T01:32:45.571Z,21.86
2017-02-09T01:33:00.121Z,21.82
2017-02-09T01:33:14.663Z,21.86
2017-02-09T01:33:29.195Z,21.92
2017-02-09T01:33:43.735Z,21.8
2017-02-09T01:33:58.266Z,21.83
2017-02-09T01:34:12.933Z,21.8
2017-02-09T01:34:27.672Z,21.85
2017-02-09T01:34:42.222Z,21.7
2017-02-09T01:34:56.774Z,21.74
2017-02-09T01:35:11.305Z,21.73
2017-02-09T01:35:25.829Z,21.76
2017-02-09T01:35:40.359Z,21.76
2017-02-09T01:35:54.932Z,21.76
2017-02-09T01:36:09.465Z,21.74
2017-02-09T01:36:23.984Z,21.74
2017-02-09T01:36:38.593Z,21.76
2017-02-09T01:36:53.174Z,21.74
2017-02-09T01:37:07.755Z,21.74
2017-02-09T01:37:22.308Z,21.7
2017-02-09T01:37:36.884Z,21.74
2017-02-09T01:37:51.461Z,21.73
2017-02-09T01:38:06.008Z,21.74
2017-02-09T01:38:20.555Z,21.74
2017-02-09T01:38:35.132Z,21.76
2017-02-09T01:38:49.715Z,21.73
2017-02-09T01:39:04.259Z,21.78
2017-02-09T01:39:18.849Z,21.74
2017-02-09T01:39:33.452Z,21.74
2017-02-09T01:39:48.040Z,21.77
2017-02-09T01:40:02.542Z,21.85
2017-02-09T01:40:17.094Z,21.8
2017-02-09T01:40:31.635Z,21.8
2017-02-09T01:40:46.198Z,21.76
2017-02-09T01:41:00.767Z,21.76
2017-02-09T01:41:15.333Z,21.7
2017-02-09T01:41:29.897Z,21.73
2017-02-09T01:41:44.468Z,21.82
2017-02-09T01:41:59.036Z,21.77
2017-02-09T01:42:13.635Z,21.77
2017-02-09T01:42:28.192Z,21.77
2017-02-09T01:42:42.909Z,21.8
2017-02-09T01:42:57.432Z,21.74
2017-02-09T01:43:12.038Z,21.77
2017-02-09T01:43:26.627Z,21.77
2017-02-09T01:43:41.220Z,21.8
2017-02-09T01:43:55.770Z,21.9
2017-02-09T01:44:10.307Z,21.85
2017-02-09T01:44:24.903Z,21.82
2017-02-09T01:44:39.508Z,21.89
2017-02-09T01:44:54.023Z,21.82
2017-02-09T01:45:08.582Z,21.92
2017-02-09T01:45:23.153Z,21.85
2017-02-09T01:45:37.708Z,21.83
2017-02-09T01:45:52.339Z,21.83
2017-02-09T01:46:06.932Z,21.85
2017-02-09T01:46:21.524Z,21.89
2017-02-09T01:46:36.065Z,21.85
2017-02-09T01:46:50.626Z,21.86
2017-02-09T01:47:05.164Z,21.82
2017-02-09T01:47:19.679Z,21.83
2017-02-09T01:47:34.224Z,21.83
2017-02-09T01:47:48.750Z,21.9
2017-02-09T01:48:03.311Z,21.85
2017-02-09T01:48:17.853Z,21.89
2017-02-09T01:48:32.434Z,21.83
2017-02-09T01:48:47.050Z,21.85
2017-02-09T01:49:01.650Z,21.82
2017-02-09T01:49:16.237Z,21.77
2017-02-09T01:49:30.854Z,21.8
2017-02-09T01:49:45.440Z,21.73
2017-02-09T01:50:00.004Z,21.74
2017-02-09T01:50:14.589Z,21.71
2017-02-09T01:50:29.188Z,21.77
2017-02-09T01:50:43.775Z,21.76
2017-02-09T01:50:58.309Z,21.77
2017-02-09T01:51:12.899Z,21.85
2017-02-09T01:51:27.411Z,21.85
2017-02-09T01:51:41.977Z,21.85
2017-02-09T01:51:56.571Z,21.83
2017-02-09T01:52:11.136Z,21.85
2017-02-09T01:52:25.651Z,21.82
2017-02-09T01:52:40.244Z,21.85
2017-02-09T01:52:54.744Z,21.8
2017-02-09T01:53:09.315Z,21.82
2017-02-09T01:53:23.883Z,21.89
2017-02-09T01:53:38.421Z,21.8
2017-02-09T01:53:52.920Z,21.86
2017-02-09T01:54:07.486Z,21.8
2017-02-09T01:54:22.104Z,21.96
2017-02-09T01:54:36.696Z,21.86
2017-02-09T01:54:51.190Z,21.93
2017-02-09T01:55:05.690Z,21.96
2017-02-09T01:55:20.256Z,21.85
2017-02-09T01:55:34.783Z,21.93
2017-02-09T01:55:49.308Z,21.9
2017-02-09T01:56:03.848Z,21.9
2017-02-09T01:56:18.363Z,21.86
2017-02-09T01:56:32.966Z,21.96
2017-02-09T01:56:47.545Z,21.94
2017-02-09T01:57:02.140Z,21.83
2017-02-09T01:57:16.698Z,21.92
2017-02-09T01:57:31.319Z,21.9
2017-02-09T01:57:46.166Z,21.89
2017-02-09T01:58:00.665Z,21.85
2017-02-09T01:58:15.251Z,21.82
2017-02-09T01:58:29.847Z,21.85
2017-02-09T01:58:44.399Z,21.85
2017-02-09T01:58:58.982Z,21.83
2017-02-09T01:59:13.559Z,21.82
2017-02-09T01:59:28.141Z,21.85
2017-02-09T01:59:42.634Z,21.82
2017-02-09T01:59:57.220Z,21.82
2017-02-09T02:00:11.811Z,21.9
2017-02-09T02:00:26.386Z,21.85
2017-02-09T02:00:40.951Z,21.89
2017-02-09T02:00:55.545Z,21.86
2017-02-09T02:01:10.079Z,21.83
2017-02-09T02:01:24.647Z,21.8
2017-02-09T02:01:39.183Z,21.8
2017-02-09T02:01:53.754Z,21.85
2017-02-09T02:02:08.342Z,21.86
2017-02-09T02:02:22.890Z,21.86
2017-02-09T02:02:37.388Z,21.9
2017-02-09T02:02:52.073Z,21.89
2017-02-09T02:03:06.616Z,21.86
2017-02-09T02:03:21.225Z,21.78
2017-02-09T02:03:35.811Z,21.83
2017-02-09T02:03:50.470Z,21.89
2017-02-09T02:04:05.095Z,21.89
2017-02-09T02:04:19.658Z,21.9
2017-02-09T02:04:34.186Z,21.89
2017-02-09T02:04:48.732Z,21.86
2017-02-09T02:05:03.364Z,21.85
2017-02-09T02:05:17.941Z,21.89
2017-02-09T02:05:32.571Z,21.85
2017-02-09T02:05:47.193Z,21.83
2017-02-09T02:06:01.679Z,21.77
2017-02-09T02:06:16.222Z,21.77
2017-02-09T02:06:30.760Z,21.76
2017-02-09T02:06:45.369Z,21.82
2017-02-09T02:06:59.971Z,21.8
2017-02-09T02:07:14.556Z,21.77
2017-02-09T02:07:29.107Z,21.78
2017-02-09T02:07:43.672Z,21.77
2017-02-09T02:07:58.226Z,21.77
2017-02-09T02:08:12.727Z,21.71
2017-02-09T02:08:27.281Z,21.74
2017-02-09T02:08:41.860Z,21.8
2017-02-09T02:08:56.439Z,21.76
2017-02-09T02:09:10.948Z,21.7
2017-02-09T02:09:25.504Z,21.77
2017-02-09T02:09:40.081Z,21.71
2017-02-09T02:09:54.616Z,21.71
2017-02-09T02:10:09.226Z,21.77
2017-02-09T02:10:23.792Z,21.76
2017-02-09T02:10:38.387Z,21.74
2017-02-09T02:10:52.962Z,21.76
2017-02-09T02:11:07.519Z,21.74
2017-02-09T02:11:22.110Z,21.8
2017-02-09T02:11:36.609Z,21.71
2017-02-09T02:11:51.196Z,21.77
2017-02-09T02:12:05.719Z,21.85
2017-02-09T02:12:20.331Z,21.68
2017-02-09T02:12:34.905Z,21.71
2017-02-09T02:12:49.893Z,21.71
2017-02-09T02:13:04.467Z,21.77
2017-02-09T02:13:19.064Z,21.8
2017-02-09T02:13:33.587Z,21.85
2017-02-09T02:13:48.149Z,21.93
2017-02-09T02:14:02.735Z,21.86
2017-02-09T02:14:17.303Z,21.85
2017-02-09T02:14:31.856Z,21.85
2017-02-09T02:14:46.446Z,21.89
2017-02-09T02:15:01.021Z,21.89
2017-02-09T02:15:15.638Z,21.86
2017-02-09T02:15:30.243Z,21.82
2017-02-09T02:15:44.769Z,21.93
2017-02-09T02:15:59.368Z,21.83
2017-02-09T02:16:13.924Z,21.82
2017-02-09T02:16:28.476Z,21.83
2017-02-09T02:16:43.056Z,21.89
2017-02-09T02:16:57.566Z,21.82
2017-02-09T02:17:12.146Z,21.86
2017-02-09T02:17:26.721Z,21.86
2017-02-09T02:17:41.311Z,21.85
2017-02-09T02:17:55.893Z,21.8
2017-02-09T02:18:10.460Z,21.85
2017-02-09T02:18:25.055Z,21.8
2017-02-09T02:18:39.639Z,21.83
2017-02-09T02:18:54.249Z,21.82
2017-02-09T02:19:08.828Z,21.8
2017-02-09T02:19:23.434Z,21.85
2017-02-09T02:19:38.014Z,21.89
2017-02-09T02:19:52.626Z,21.92
2017-02-09T02:20:07.208Z,21.85
2017-02-09T02:20:21.742Z,21.83
2017-02-09T02:20:36.287Z,21.9
2017-02-09T02:20:50.801Z,21.92
2017-02-09T02:21:05.338Z,21.77
2017-02-09T02:21:19.952Z,21.82
2017-02-09T02:21:34.459Z,21.85
2017-02-09T02:21:48.990Z,21.82
2017-02-09T02:22:03.520Z,21.89
2017-02-09T02:22:18.145Z,21.78
2017-02-09T02:22:32.746Z,21.83
2017-02-09T02:22:47.301Z,21.82
2017-02-09T02:23:01.851Z,21.86
2017-02-09T02:23:16.454Z,21.83
2017-02-09T02:23:31.013Z,21.86
2017-02-09T02:23:45.565Z,21.85
2017-02-09T02:24:00.126Z,21.78
2017-02-09T02:24:14.640Z,21.7
2017-02-09T02:24:29.245Z,21.76
2017-02-09T02:24:43.845Z,21.74
2017-02-09T02:24:58.461Z,21.76
2017-02-09T02:25:13.027Z,21.76
2017-02-09T02:25:27.617Z,21.78
2017-02-09T02:25:42.144Z,21.73
2017-02-09T02:25:56.649Z,21.74
2017-02-09T02:26:11.206Z,21.73
2017-02-09T02:26:25.773Z,21.71
2017-02-09T02:26:40.415Z,21.68
2017-02-09T02:26:54.951Z,21.78
2017-02-09T02:27:09.537Z,21.78
2017-02-09T02:27:24.072Z,21.71
2017-02-09T02:27:38.648Z,21.73
2017-02-09T02:27:53.446Z,21.73
2017-02-09T02:28:08.006Z,21.74
2017-02-09T02:28:22.641Z,21.74
2017-02-09T02:28:37.211Z,21.73
2017-02-09T02:28:51.785Z,21.74
2017-02-09T02:29:06.374Z,21.73
2017-02-09T02:29:20.938Z,21.7
2017-02-09T02:29:35.754Z,21.74
2017-02-09T02:29:50.680Z,21.74
2017-02-09T02:30:05.258Z,21.73
2017-02-09T02:30:19.802Z,21.7
2017-02-09T02:30:34.376Z,21.82
2017-02-09T02:30:48.909Z,21.7
2017-02-09T02:31:03.424Z,21.71
2017-02-09T02:31:17.974Z,21.76
2017-02-09T02:31:32.607Z,21.76
2017-02-09T02:31:47.149Z,21.77
2017-02-09T02:32:01.702Z,21.77
2017-02-09T02:32:16.288Z,21.83
2017-02-09T02:32:30.830Z,21.82
2017-02-09T02:32:45.395Z,21.78
2017-02-09T02:33:00.552Z,21.82
2017-02-09T02:33:15.102Z,21.73
2017-02-09T02:33:30.701Z,21.77
2017-02-09T02:33:48.200Z,21.7
2017-02-09T02:34:02.744Z,21.77
2017-02-09T02:34:18.306Z,21.73
2017-02-09T02:34:32.862Z,21.74
2017-02-09T02:34:47.445Z,21.73
2017-02-09T02:35:01.993Z,21.73
2017-02-09T02:35:16.569Z,21.76
2017-02-09T02:35:31.130Z,21.73
2017-02-09T02:35:45.707Z,21.74
2017-02-09T02:36:00.247Z,21.74
2017-02-09T02:36:14.855Z,21.76
2017-02-09T02:36:29.434Z,21.78
2017-02-09T02:36:44.034Z,21.68
2017-02-09T02:36:58.594Z,21.8
2017-02-09T02:37:13.195Z,21.73
2017-02-09T02:37:27.745Z,21.71
2017-02-09T02:37:42.302Z,21.74
2017-02-09T02:37:56.908Z,21.71
2017-02-09T02:38:11.470Z,21.71
2017-02-09T02:38:26.081Z,21.73
2017-02-09T02:38:40.646Z,21.76
2017-02-09T02:38:55.210Z,21.74
2017-02-09T02:39:09.726Z,21.73
2017-02-09T02:39:24.283Z,21.74
2017-02-09T02:39:38.820Z,21.73
2017-02-09T02:39:53.333Z,21.73
2017-02-09T02:40:07.931Z,21.73
2017-02-09T02:40:22.683Z,21.71
2017-02-09T02:40:37.247Z,21.73
2017-02-09T02:40:51.859Z,21.76
2017-02-09T02:41:06.405Z,21.76
2017-02-09T02:41:20.991Z,21.68
2017-02-09T02:41:35.574Z,21.67
2017-02-09T02:41:50.151Z,21.74
2017-02-09T02:42:04.737Z,21.68
2017-02-09T02:42:19.307Z,21.74
2017-02-09T02:42:33.830Z,21.74
2017-02-09T02:42:48.374Z,21.76
2017-02-09T02:43:03.107Z,21.73
2017-02-09T02:43:17.652Z,21.7
2017-02-09T02:43:32.159Z,21.73
2017-02-09T02:43:46.760Z,21.76
2017-02-09T02:44:01.304Z,21.73
2017-02-09T02:44:15.809Z,21.74
2017-02-09T02:44:30.351Z,21.66
2017-02-09T02:44:44.889Z,21.71
2017-02-09T02:44:59.449Z,21.67
2017-02-09T02:45:14.059Z,21.74
2017-02-09T02:45:28.605Z,21.67
2017-02-09T02:45:43.225Z,21.77
2017-02-09T02:45:57.754Z,21.74
2017-02-09T02:46:12.287Z,21.74
2017-02-09T02:46:26.835Z,21.73
2017-02-09T02:46:41.369Z,21.76
2017-02-09T02:46:55.884Z,21.7
2017-02-09T02:47:10.460Z,21.76
2017-02-09T02:47:25.016Z,21.73
2017-02-09T02:47:39.601Z,21.76
2017-02-09T02:47:54.146Z,21.73
2017-02-09T02:48:08.697Z,21.74
2017-02-09T02:48:23.323Z,21.74
2017-02-09T02:48:37.862Z,21.73
2017-02-09T02:48:52.449Z,21.74
2017-02-09T02:49:07.051Z,21.62
2017-02-09T02:49:21.798Z,21.71
2017-02-09T02:49:36.383Z,21.71
2017-02-09T02:49:50.938Z,21.67
2017-02-09T02:50:05.731Z,21.62
2017-02-09T02:50:20.296Z,21.71
2017-02-09T02:50:34.858Z,21.77
2017-02-09T02:50:49.403Z,21.68
2017-02-09T02:51:03.986Z,21.7
2017-02-09T02:51:18.561Z,21.74
2017-02-09T02:51:33.083Z,21.71
2017-02-09T02:51:47.679Z,21.74
2017-02-09T02:52:02.179Z,21.67
2017-02-09T02:52:16.750Z,21.78
2017-02-09T02:52:31.324Z,21.73
2017-02-09T02:52:45.964Z,21.76
2017-02-09T02:53:00.491Z,21.73
2017-02-09T02:53:15.025Z,21.74
2017-02-09T02:53:29.569Z,21.7
2017-02-09T02:53:44.141Z,21.74
2017-02-09T02:53:58.726Z,21.71
2017-02-09T02:54:13.324Z,21.82
2017-02-09T02:54:27.900Z,21.71
2017-02-09T02:54:42.435Z,21.77
2017-02-09T02:54:56.977Z,21.71
2017-02-09T02:55:11.528Z,21.77
2017-02-09T02:55:26.075Z,21.76
2017-02-09T02:55:40.673Z,21.74
2017-02-09T02:55:55.273Z,21.77
2017-02-09T02:56:09.846Z,21.73
2017-02-09T02:56:24.338Z,21.76
2017-02-09T02:56:38.888Z,21.82
2017-02-09T02:56:53.449Z,21.82
2017-02-09T02:57:08.045Z,21.85
2017-02-09T02:57:22.616Z,21.8
2017-02-09T02:57:37.209Z,21.86
2017-02-09T02:57:51.830Z,21.83
2017-02-09T02:58:06.630Z,21.82
2017-02-09T02:58:21.221Z,21.82
2017-02-09T02:58:35.756Z,21.8
2017-02-09T02:58:50.307Z,21.85
2017-02-09T02:59:04.864Z,21.86
2017-02-09T02:59:19.422Z,21.89
2017-02-09T02:59:34.034Z,21.8
2017-02-09T02:59:48.661Z,21.86
2017-02-09T03:00:03.210Z,21.85
2017-02-09T03:00:17.823Z,21.76
2017-02-09T03:00:32.433Z,21.85
2017-02-09T03:00:47.089Z,21.73
2017-02-09T03:01:01.615Z,21.82
2017-02-09T03:01:16.206Z,21.73
2017-02-09T03:01:30.840Z,21.76
2017-02-09T03:01:45.444Z,21.74
2017-02-09T03:02:00.029Z,21.78
2017-02-09T03:02:14.631Z,21.71
2017-02-09T03:02:29.217Z,21.68
2017-02-09T03:02:43.774Z,21.71
2017-02-09T03:02:58.309Z,21.68
2017-02-09T03:03:12.836Z,21.73
2017-02-09T03:03:27.410Z,21.68
2017-02-09T03:03:41.975Z,21.61
2017-02-09T03:03:56.549Z,21.67
2017-02-09T03:04:11.048Z,21.64
2017-02-09T03:04:25.623Z,21.66
2017-02-09T03:04:40.214Z,21.56
2017-02-09T03:04:54.788Z,21.66
2017-02-09T03:05:09.357Z,21.62
2017-02-09T03:05:23.898Z,21.66
2017-02-09T03:05:38.501Z,21.7
2017-02-09T03:05:53.102Z,21.67
2017-02-09T03:06:07.647Z,21.58
2017-02-09T03:06:22.203Z,21.61
2017-02-09T03:06:36.777Z,21.66
2017-02-09T03:06:51.303Z,21.62
2017-02-09T03:07:05.886Z,21.71
2017-02-09T03:07:20.550Z,21.67
2017-02-09T03:07:35.113Z,21.67
2017-02-09T03:07:49.755Z,21.59
2017-02-09T03:08:04.339Z,21.67
2017-02-09T03:08:18.944Z,21.67
2017-02-09T03:08:33.587Z,21.68
2017-02-09T03:08:48.115Z,21.68